createdAt,value
2019-05-18T00:01:39.231Z,30.02
2019-05-18T00:04:10.886Z,30.00
2019-05-18T00:06:42.545Z,29.59
2019-05-18T00:09:14.265Z,29.59
2019-05-18T00:11:46.125Z,29.76
2019-05-18T00:14:18.026Z,29.87
2019-05-18T00:16:50.196Z,29.85
2019-05-18T00:19:21.446Z,29.85
2019-05-18T00:21:53.061Z,29.85
2019-05-18T00:24:24.771Z,29.93
2019-05-18T00:26:56.437Z,29.85
2019-05-18T00:29:28.042Z,29.96
2019-05-18T00:31:59.854Z,30.04
2019-05-18T00:34:31.499Z,30.06
2019-05-18T00:37:03.086Z,30.06
2019-05-18T00:39:35.028Z,30.09
2019-05-18T00:42:06.980Z,30.39
2019-05-18T00:44:38.742Z,30.39
2019-05-18T00:47:11.113Z,30.18
2019-05-18T00:49:42.990Z,30.24
2019-05-18T00:52:14.695Z,30.13
2019-05-18T00:54:46.489Z,31.41
2019-05-18T00:57:18.065Z,31.83
2019-05-18T00:59:52.571Z,31.77
2019-05-18T01:02:24.425Z,31.70
2019-05-18T01:04:55.906Z,31.65
2019-05-18T01:07:27.520Z,31.59
2019-05-18T01:09:59.308Z,31.72
2019-05-18T01:12:30.820Z,31.81
2019-05-18T01:15:02.463Z,31.85
2019-05-18T01:17:35.615Z,31.90
2019-05-18T01:20:08.007Z,32.00
2019-05-18T01:22:39.759Z,32.00
2019-05-18T01:25:11.609Z,32.18
2019-05-18T01:27:43.517Z,31.97
2019-05-18T01:30:16.323Z,31.92
2019-05-18T01:32:47.790Z,31.99
2019-05-18T01:35:20.805Z,32.15
2019-05-18T01:37:52.084Z,32.22
2019-05-18T01:40:23.719Z,32.22
2019-05-18T01:42:55.467Z,32.27
2019-05-18T01:45:27.096Z,32.27
2019-05-18T01:48:12.584Z,32.39
2019-05-18T01:50:32.668Z,32.34
2019-05-18T01:53:04.494Z,32.76
2019-05-18T01:55:36.260Z,32.62
2019-05-18T01:58:09.278Z,32.73
2019-05-18T02:00:41.301Z,32.68
2019-05-18T02:03:14.067Z,32.63
2019-05-18T02:05:45.989Z,32.92
2019-05-18T02:08:17.314Z,33.08
2019-05-18T02:10:48.987Z,32.91
2019-05-18T02:13:21.860Z,32.91
2019-05-18T02:15:53.548Z,33.10
2019-05-18T02:18:29.104Z,32.86
2019-05-18T02:20:59.324Z,33.03
2019-05-18T02:23:31.072Z,33.23
2019-05-18T02:26:02.434Z,33.15
2019-05-18T02:28:34.545Z,33.15
2019-05-18T02:31:06.441Z,33.24
2019-05-18T02:33:38.116Z,33.23
2019-05-18T02:36:09.808Z,33.23
2019-05-18T02:38:41.536Z,32.74
2019-05-18T02:41:13.130Z,33.19
2019-05-18T02:43:44.920Z,33.19
2019-05-18T02:46:16.589Z,32.83
2019-05-18T02:48:50.663Z,32.91
2019-05-18T02:51:21.899Z,33.30
2019-05-18T02:53:53.492Z,32.92
2019-05-18T02:56:25.054Z,32.52
2019-05-18T02:58:56.638Z,32.98
2019-05-18T03:01:28.450Z,32.92
2019-05-18T03:04:00.389Z,32.34
2019-05-18T03:06:32.119Z,32.88
2019-05-18T03:09:05.452Z,32.88
2019-05-18T03:11:37.547Z,32.45
2019-05-18T03:14:12.364Z,31.83
2019-05-18T03:16:43.831Z,31.83
2019-05-18T03:19:15.592Z,32.04
2019-05-18T03:21:47.341Z,32.04
2019-05-18T03:24:19.129Z,32.50
2019-05-18T03:26:50.737Z,31.55
2019-05-18T03:29:22.593Z,31.55
2019-05-18T03:31:54.385Z,31.88
2019-05-18T03:34:25.796Z,31.88
2019-05-18T03:36:57.227Z,31.48
2019-05-18T03:39:29.321Z,32.51
2019-05-18T03:42:01.033Z,32.60
2019-05-18T03:44:33.026Z,32.43
2019-05-18T03:47:04.297Z,32.43
2019-05-18T03:49:38.943Z,31.99
2019-05-18T03:52:10.536Z,32.20
2019-05-18T03:54:42.498Z,32.26
2019-05-18T03:57:14.075Z,31.59
2019-05-18T03:59:47.419Z,31.59
2019-05-18T04:02:19.324Z,31.73
2019-05-18T04:04:51.501Z,31.79
2019-05-18T04:07:23.230Z,31.90
2019-05-18T04:09:55.174Z,31.90
2019-05-18T04:12:27.131Z,31.49
2019-05-18T04:14:58.736Z,32.22
2019-05-18T04:17:30.523Z,31.48
2019-05-18T04:20:03.845Z,31.58
2019-05-18T04:22:35.598Z,32.00
2019-05-18T04:25:08.343Z,31.93
2019-05-18T04:27:40.087Z,31.91
2019-05-18T04:30:12.021Z,32.43
2019-05-18T04:32:43.886Z,32.43
2019-05-18T04:35:16.023Z,32.88
2019-05-18T04:37:47.784Z,32.38
2019-05-18T04:40:19.829Z,31.74
2019-05-18T04:42:51.801Z,31.74
2019-05-18T04:45:23.574Z,31.80
2019-05-18T04:47:55.300Z,32.67
2019-05-18T04:50:27.389Z,33.07
2019-05-18T04:52:59.986Z,33.24
2019-05-18T04:55:31.210Z,33.19
2019-05-18T04:58:03.013Z,33.07
2019-05-18T05:00:34.375Z,33.46
2019-05-18T05:03:07.619Z,33.46
2019-05-18T05:05:39.215Z,33.65
2019-05-18T05:08:11.124Z,33.22
2019-05-18T05:10:42.649Z,33.00
2019-05-18T05:13:14.131Z,32.97
2019-05-18T05:15:46.995Z,33.20
2019-05-18T05:18:19.172Z,33.20
2019-05-18T05:20:51.247Z,32.85
2019-05-18T05:23:22.850Z,33.12
2019-05-18T05:25:54.530Z,33.01
2019-05-18T05:28:26.140Z,33.67
2019-05-18T05:30:57.788Z,33.67
2019-05-18T05:33:29.333Z,33.75
2019-05-18T05:36:00.886Z,33.38
2019-05-18T05:38:32.451Z,33.18
2019-05-18T05:41:05.041Z,33.12
2019-05-18T05:43:36.551Z,33.30
2019-05-18T05:46:08.124Z,33.30
2019-05-18T05:48:40.650Z,33.14
2019-05-18T05:51:12.390Z,32.91
2019-05-18T05:53:43.891Z,32.80
2019-05-18T05:56:15.533Z,33.20
2019-05-18T05:58:46.872Z,33.33
2019-05-18T06:01:18.802Z,33.50
2019-05-18T06:03:50.895Z,33.50
2019-05-18T06:06:23.176Z,33.82
2019-05-18T06:08:55.225Z,32.87
2019-05-18T06:11:27.019Z,33.37
2019-05-18T06:13:58.879Z,33.22
2019-05-18T06:16:30.254Z,33.36
2019-05-18T06:19:01.979Z,33.53
2019-05-18T06:21:34.011Z,33.53
2019-05-18T06:24:05.774Z,32.67
2019-05-18T06:26:37.686Z,32.67
2019-05-18T06:29:09.320Z,32.53
2019-05-18T06:31:40.910Z,32.75
2019-05-18T06:34:13.149Z,32.63
2019-05-18T06:36:45.233Z,32.12
2019-05-18T06:39:16.773Z,33.64
2019-05-18T06:41:48.501Z,32.81
2019-05-18T06:44:20.198Z,32.81
2019-05-18T06:46:51.974Z,33.57
2019-05-18T06:49:23.823Z,33.57
2019-05-18T06:51:56.018Z,33.43
2019-05-18T06:54:27.640Z,33.97
2019-05-18T06:57:00.171Z,33.79
2019-05-18T06:59:32.490Z,33.62
2019-05-18T07:02:03.833Z,33.62
2019-05-18T07:04:36.209Z,33.60
2019-05-18T07:07:07.884Z,33.60
2019-05-18T07:09:39.511Z,34.19
2019-05-18T07:12:11.252Z,33.82
2019-05-18T07:14:43.081Z,34.34
2019-05-18T07:17:14.781Z,33.94
2019-05-18T07:19:47.027Z,33.94
2019-05-18T07:22:19.097Z,32.41
2019-05-18T07:24:50.540Z,31.67
2019-05-18T07:27:22.264Z,31.87
2019-05-18T07:29:54.025Z,32.93
2019-05-18T07:32:25.594Z,32.94
2019-05-18T07:34:57.144Z,32.94
2019-05-18T07:37:28.965Z,33.63
2019-05-18T07:40:00.920Z,33.52
2019-05-18T07:42:32.661Z,33.89
2019-05-18T07:45:12.558Z,33.00
2019-05-18T07:47:44.651Z,33.64
2019-05-18T07:50:17.386Z,32.63
2019-05-18T07:52:49.187Z,33.30
2019-05-18T07:55:20.759Z,32.64
2019-05-18T07:57:52.976Z,33.37
2019-05-18T08:00:24.712Z,33.56
2019-05-18T08:02:56.465Z,33.48
2019-05-18T08:05:29.018Z,33.68
2019-05-18T08:08:01.780Z,33.85
2019-05-18T08:10:43.748Z,33.85
2019-05-18T08:13:15.877Z,33.95
2019-05-18T08:15:47.668Z,34.39
2019-05-18T08:18:19.360Z,33.81
2019-05-18T08:20:51.140Z,33.82
2019-05-18T08:23:23.253Z,33.75
2019-05-18T08:25:54.802Z,34.15
2019-05-18T08:28:26.566Z,33.81
2019-05-18T08:30:58.398Z,33.95
2019-05-18T08:33:31.098Z,33.64
2019-05-18T08:36:02.696Z,33.73
2019-05-18T08:38:33.962Z,33.51
2019-05-18T08:41:05.667Z,33.49
2019-05-18T08:43:38.375Z,33.50
2019-05-18T08:46:09.902Z,33.49
2019-05-18T08:48:44.396Z,33.85
2019-05-18T08:51:15.856Z,34.09
2019-05-18T08:53:47.510Z,33.78
2019-05-18T08:56:19.176Z,33.63
2019-05-18T08:58:50.696Z,33.69
2019-05-18T09:01:21.976Z,33.69
2019-05-18T09:03:53.601Z,33.51
2019-05-18T09:06:25.378Z,33.66
2019-05-18T09:08:57.290Z,34.23
2019-05-18T09:11:28.683Z,34.69
2019-05-18T09:14:00.532Z,34.64
2019-05-18T09:16:31.749Z,34.08
2019-05-18T09:19:03.269Z,34.52
2019-05-18T09:21:34.529Z,34.52
2019-05-18T09:24:06.944Z,34.11
2019-05-18T09:26:38.746Z,34.38
2019-05-18T09:29:10.404Z,33.86
2019-05-18T09:31:41.869Z,34.17
2019-05-18T09:34:13.444Z,34.20
2019-05-18T09:36:45.010Z,33.94
2019-05-18T09:39:17.031Z,33.94
2019-05-18T09:41:48.633Z,34.15
2019-05-18T09:44:20.082Z,34.34
2019-05-18T09:46:51.854Z,34.34
2019-05-18T09:49:23.619Z,34.18
2019-05-18T09:51:55.165Z,34.18
2019-05-18T09:54:27.333Z,34.14
2019-05-18T09:56:59.091Z,34.25
2019-05-18T09:59:33.558Z,34.25
2019-05-18T10:02:05.397Z,33.91
2019-05-18T10:04:37.020Z,34.42
2019-05-18T10:07:08.898Z,34.42
2019-05-18T10:09:40.387Z,34.45
2019-05-18T10:12:11.869Z,34.53
2019-05-18T10:14:43.955Z,34.68
2019-05-18T10:17:15.191Z,34.52
2019-05-18T10:19:46.658Z,34.90
2019-05-18T10:22:18.407Z,35.07
2019-05-18T10:24:50.468Z,34.89
2019-05-18T10:27:22.319Z,34.47
2019-05-18T10:29:53.923Z,34.56
2019-05-18T10:32:25.378Z,34.61
2019-05-18T10:34:58.423Z,34.61
2019-05-18T10:37:29.669Z,34.89
2019-05-18T10:40:01.323Z,34.90
2019-05-18T10:42:33.305Z,34.72
2019-05-18T10:45:05.241Z,35.51
2019-05-18T10:47:36.551Z,35.29
2019-05-18T10:50:08.989Z,35.41
2019-05-18T10:52:40.313Z,35.37
2019-05-18T10:55:12.478Z,35.17
2019-05-18T10:57:44.141Z,34.67
2019-05-18T11:00:15.954Z,34.52
2019-05-18T11:02:47.765Z,34.77
2019-05-18T11:05:19.592Z,34.80
2019-05-18T11:07:52.041Z,34.73
2019-05-18T11:10:23.715Z,35.00
2019-05-18T11:12:55.448Z,35.00
2019-05-18T11:15:27.024Z,34.76
2019-05-18T11:17:58.397Z,34.81
2019-05-18T11:20:29.988Z,35.07
2019-05-18T11:23:01.455Z,35.11
2019-05-18T11:25:32.960Z,34.78
2019-05-18T11:28:05.561Z,34.78
2019-05-18T11:30:37.096Z,35.36
2019-05-18T11:33:08.569Z,35.36
2019-05-18T11:36:01.281Z,35.27
2019-05-18T11:38:32.963Z,34.75
2019-05-18T11:41:04.762Z,34.63
2019-05-18T11:43:38.645Z,34.82
2019-05-18T11:46:10.479Z,34.74
2019-05-18T11:48:41.982Z,35.18
2019-05-18T11:51:13.389Z,34.84
2019-05-18T11:53:57.513Z,35.17
2019-05-18T11:56:18.661Z,34.95
2019-05-18T11:58:50.724Z,34.97
2019-05-18T12:01:22.410Z,34.96
2019-05-18T12:03:53.961Z,34.84
2019-05-18T12:06:25.673Z,34.93
2019-05-18T12:08:58.697Z,35.17
2019-05-18T12:11:30.452Z,35.17
2019-05-18T12:14:01.948Z,34.78
2019-05-18T12:16:33.861Z,34.84
2019-05-18T12:19:05.226Z,34.84
2019-05-18T12:21:38.448Z,34.52
2019-05-18T12:24:15.461Z,34.90
2019-05-18T12:26:43.857Z,34.97
2019-05-18T12:29:15.443Z,34.33
2019-05-18T12:31:47.098Z,34.60
2019-05-18T12:34:18.602Z,34.40
2019-05-18T12:36:50.049Z,34.14
2019-05-18T12:39:21.311Z,34.14
2019-05-18T12:41:52.754Z,34.30
2019-05-18T12:44:24.256Z,34.08
2019-05-18T12:46:55.927Z,34.08
2019-05-18T12:49:27.799Z,33.91
2019-05-18T12:51:59.223Z,34.03
2019-05-18T12:54:45.323Z,33.70
2019-05-18T12:57:04.369Z,33.86
2019-05-18T12:59:36.045Z,33.86
2019-05-18T13:02:07.600Z,33.99
2019-05-18T13:04:41.746Z,33.97
2019-05-18T13:07:12.110Z,33.99
2019-05-18T13:09:43.873Z,33.98
2019-05-18T13:12:15.338Z,34.06
2019-05-18T13:14:46.524Z,34.05
2019-05-18T13:17:21.188Z,34.11
2019-05-18T13:19:51.710Z,34.20
2019-05-18T13:22:23.299Z,34.05
2019-05-18T13:24:54.779Z,34.15
2019-05-18T13:27:38.679Z,34.01
2019-05-18T13:30:01.389Z,33.98
2019-05-18T13:32:32.986Z,33.94
2019-05-18T13:35:06.032Z,33.94
2019-05-18T13:37:37.734Z,34.05
2019-05-18T13:40:09.855Z,33.86
2019-05-18T13:42:41.331Z,33.82
2019-05-18T13:45:14.644Z,33.82
2019-05-18T13:47:46.118Z,33.73
2019-05-18T13:50:19.039Z,33.83
2019-05-18T13:52:50.484Z,33.93
2019-05-18T13:55:22.054Z,33.93
2019-05-18T13:57:54.045Z,33.88
2019-05-18T14:00:25.646Z,33.84
2019-05-18T14:02:57.357Z,33.89
2019-05-18T14:05:28.763Z,33.89
2019-05-18T14:08:00.252Z,33.55
2019-05-18T14:10:31.728Z,33.21
2019-05-18T14:13:05.598Z,33.21
2019-05-18T14:15:37.612Z,33.54
2019-05-18T14:18:09.098Z,33.54
2019-05-18T14:20:40.814Z,33.61
2019-05-18T14:23:12.583Z,33.54
2019-05-18T14:26:04.225Z,33.68
2019-05-18T14:28:35.963Z,33.50
2019-05-18T14:31:07.661Z,33.57
2019-05-18T14:33:39.291Z,33.57
2019-05-18T14:36:11.219Z,33.40
2019-05-18T14:38:42.810Z,33.40
2019-05-18T14:41:14.116Z,33.41
2019-05-18T14:43:45.443Z,33.50
2019-05-18T14:46:16.804Z,33.46
2019-05-18T14:48:48.154Z,33.37
2019-05-18T14:51:19.988Z,33.20
2019-05-18T14:53:51.714Z,33.20
2019-05-18T14:56:23.379Z,33.30
2019-05-18T14:58:54.766Z,33.33
2019-05-18T15:01:26.692Z,33.31
2019-05-18T15:03:58.537Z,33.28
2019-05-18T15:06:30.632Z,33.28
2019-05-18T15:09:02.026Z,33.29
2019-05-18T15:11:33.915Z,33.15
2019-05-18T15:14:05.506Z,33.15
2019-05-18T15:16:37.272Z,33.09
2019-05-18T15:19:09.078Z,33.22
2019-05-18T15:21:40.843Z,33.12
2019-05-18T15:24:12.589Z,33.01
2019-05-18T15:26:44.365Z,33.01
2019-05-18T15:29:16.328Z,32.96
2019-05-18T15:31:47.924Z,32.89
2019-05-18T15:34:19.342Z,32.95
2019-05-18T15:36:52.459Z,32.89
2019-05-18T15:39:23.931Z,32.87
2019-05-18T15:41:55.288Z,32.80
2019-05-18T15:44:28.240Z,32.80
2019-05-18T15:46:59.696Z,32.73
2019-05-18T15:49:31.456Z,32.75
2019-05-18T15:52:03.108Z,32.65
2019-05-18T15:54:36.168Z,32.77
2019-05-18T15:57:09.290Z,32.64
2019-05-18T15:59:42.942Z,32.71
2019-05-18T16:02:16.969Z,32.71
2019-05-18T16:04:49.609Z,32.75
2019-05-18T16:07:21.474Z,32.75
2019-05-18T16:09:53.399Z,32.79
2019-05-18T16:12:24.992Z,32.80
2019-05-18T16:14:56.710Z,32.71
2019-05-18T16:17:38.906Z,32.64
2019-05-18T16:20:01.798Z,32.64
2019-05-18T16:22:33.413Z,32.64
2019-05-18T16:25:05.265Z,32.70
2019-05-18T16:27:38.896Z,32.57
2019-05-18T16:30:11.712Z,32.57
2019-05-18T16:32:43.258Z,32.58
2019-05-18T16:35:14.945Z,32.58
2019-05-18T16:37:46.907Z,32.55
2019-05-18T16:40:18.474Z,32.55
2019-05-18T16:42:50.188Z,32.58
2019-05-18T16:45:21.979Z,32.41
2019-05-18T16:47:53.612Z,32.45
2019-05-18T16:50:25.357Z,32.42
2019-05-18T16:53:00.661Z,32.36
2019-05-18T16:55:32.293Z,32.34
2019-05-18T16:58:03.772Z,32.33
2019-05-18T17:00:35.768Z,32.33
2019-05-18T17:03:07.633Z,32.25
2019-05-18T17:05:39.980Z,32.29
2019-05-18T17:08:11.510Z,32.28
2019-05-18T17:10:43.133Z,32.31
2019-05-18T17:13:15.013Z,32.21
2019-05-18T17:15:47.002Z,32.21
2019-05-18T17:18:18.843Z,32.21
2019-05-18T17:20:51.273Z,32.31
2019-05-18T17:23:22.752Z,32.20
2019-05-18T17:25:54.537Z,32.14
2019-05-18T17:28:25.895Z,32.18
2019-05-18T17:30:57.675Z,32.18
2019-05-18T17:33:29.229Z,32.13
2019-05-18T17:36:01.043Z,32.05
2019-05-18T17:38:32.483Z,32.03
2019-05-18T17:41:04.449Z,32.00
2019-05-18T17:43:35.825Z,32.00
2019-05-18T17:46:07.555Z,31.95
2019-05-18T17:48:39.262Z,32.00
2019-05-18T17:51:11.142Z,32.02
2019-05-18T17:53:45.673Z,31.89
2019-05-18T17:56:18.905Z,31.82
2019-05-18T17:58:50.733Z,31.82
2019-05-18T18:01:22.455Z,31.85
2019-05-18T18:03:54.077Z,31.80
2019-05-18T18:06:25.765Z,31.80
2019-05-18T18:08:57.638Z,31.82
2019-05-18T18:11:29.512Z,31.82
2019-05-18T18:14:01.247Z,32.36
2019-05-18T18:16:33.282Z,32.36
2019-05-18T18:19:05.082Z,32.52
2019-05-18T18:21:37.156Z,32.50
2019-05-18T18:24:09.471Z,32.57
2019-05-18T18:26:41.490Z,32.57
2019-05-18T18:29:12.973Z,32.73
2019-05-18T18:31:44.875Z,32.62
2019-05-18T18:34:16.296Z,32.77
2019-05-18T18:36:48.512Z,32.73
2019-05-18T18:39:19.813Z,32.54
2019-05-18T18:41:51.293Z,32.52
2019-05-18T18:44:23.068Z,32.67
2019-05-18T18:46:55.171Z,32.64
2019-05-18T18:49:26.796Z,32.44
2019-05-18T18:51:58.615Z,32.51
2019-05-18T18:54:30.231Z,32.51
2019-05-18T18:57:01.782Z,32.51
2019-05-18T18:59:33.554Z,32.44
2019-05-18T19:02:06.009Z,32.34
2019-05-18T19:04:37.281Z,32.20
2019-05-18T19:07:09.296Z,32.20
2019-05-18T19:09:40.584Z,32.16
2019-05-18T19:12:12.479Z,32.11
2019-05-18T19:14:44.208Z,32.11
2019-05-18T19:17:15.935Z,32.07
2019-05-18T19:19:47.640Z,32.09
2019-05-18T19:22:18.958Z,32.04
2019-05-18T19:24:51.058Z,32.01
2019-05-18T19:27:22.548Z,32.03
2019-05-18T19:29:53.913Z,31.85
2019-05-18T19:32:25.976Z,31.81
2019-05-18T19:34:57.598Z,31.74
2019-05-18T19:37:29.052Z,31.67
2019-05-18T19:40:00.796Z,31.68
2019-05-18T19:42:32.151Z,31.73
2019-05-18T19:45:03.898Z,31.75
2019-05-18T19:47:35.650Z,31.73
2019-05-18T19:50:07.537Z,31.65
2019-05-18T19:52:39.771Z,31.60
2019-05-18T19:55:11.426Z,31.64
2019-05-18T19:57:42.855Z,31.62
2019-05-18T20:00:14.711Z,31.65
2019-05-18T20:02:47.046Z,31.60
2019-05-18T20:05:19.007Z,31.54
2019-05-18T20:07:51.143Z,31.51
2019-05-18T20:10:22.697Z,31.55
2019-05-18T20:12:54.385Z,31.53
2019-05-18T20:15:26.033Z,31.44
2019-05-18T20:17:57.378Z,31.19
2019-05-18T20:20:28.952Z,31.37
2019-05-18T20:23:00.689Z,31.45
2019-05-18T20:25:32.359Z,31.45
2019-05-18T20:28:04.246Z,31.62
2019-05-18T20:30:35.927Z,31.57
2019-05-18T20:33:08.149Z,31.52
2019-05-18T20:35:40.099Z,31.38
2019-05-18T20:38:11.961Z,31.52
2019-05-18T20:40:43.420Z,31.34
2019-05-18T20:43:15.175Z,31.42
2019-05-18T20:45:46.701Z,31.40
2019-05-18T20:48:18.718Z,31.36
2019-05-18T20:50:50.268Z,31.13
2019-05-18T20:53:22.189Z,31.09
2019-05-18T20:55:53.580Z,31.31
2019-05-18T20:58:38.713Z,31.29
2019-05-18T21:00:58.345Z,31.23
2019-05-18T21:03:30.366Z,31.16
2019-05-18T21:06:01.580Z,31.16
2019-05-18T21:08:33.015Z,31.18
2019-05-18T21:11:04.597Z,31.03
2019-05-18T21:13:37.156Z,30.91
2019-05-18T21:16:08.469Z,31.04
2019-05-18T21:18:41.498Z,31.24
2019-05-18T21:21:13.977Z,31.09
2019-05-18T21:23:45.619Z,30.99
2019-05-18T21:26:17.363Z,30.92
2019-05-18T21:28:59.168Z,30.88
2019-05-18T21:31:23.116Z,31.01
2019-05-18T21:33:55.911Z,30.99
2019-05-18T21:36:27.681Z,30.65
2019-05-18T21:38:59.231Z,30.65
2019-05-18T21:41:30.773Z,30.86
2019-05-18T21:44:02.301Z,30.75
2019-05-18T21:46:34.132Z,30.89
2019-05-18T21:49:05.584Z,30.70
2019-05-18T21:51:36.979Z,30.79
2019-05-18T21:54:08.536Z,30.67
2019-05-18T21:56:39.860Z,30.67
2019-05-18T21:59:12.555Z,30.45
2019-05-18T22:01:44.076Z,30.78
2019-05-18T22:04:15.829Z,30.78
2019-05-18T22:06:47.565Z,30.82
2019-05-18T22:09:18.909Z,30.77
2019-05-18T22:11:50.430Z,30.55
2019-05-18T22:14:21.783Z,30.62
2019-05-18T22:16:53.845Z,30.52
2019-05-18T22:19:25.296Z,30.69
2019-05-18T22:21:56.980Z,30.28
2019-05-18T22:24:29.535Z,30.70
2019-05-18T22:27:01.224Z,30.92
2019-05-18T22:29:32.484Z,30.81
2019-05-18T22:32:04.167Z,30.65
2019-05-18T22:34:37.677Z,30.68
2019-05-18T22:37:09.344Z,30.84
2019-05-18T22:39:40.690Z,30.73
2019-05-18T22:42:12.441Z,30.80
2019-05-18T22:44:43.932Z,30.83
2019-05-18T22:47:15.577Z,30.89
2019-05-18T22:49:47.199Z,30.79
2019-05-18T22:52:18.942Z,30.65
2019-05-18T22:54:50.466Z,30.71
2019-05-18T22:57:22.099Z,30.73
2019-05-18T22:59:53.888Z,30.64
2019-05-18T23:02:26.095Z,30.64
2019-05-18T23:04:57.959Z,30.71
2019-05-18T23:07:29.487Z,30.56
2019-05-18T23:10:01.216Z,30.51
2019-05-18T23:12:34.227Z,30.51
2019-05-18T23:15:06.333Z,30.43
2019-05-18T23:17:38.142Z,30.43
2019-05-18T23:20:09.901Z,30.54
2019-05-18T23:22:41.633Z,30.54
2019-05-18T23:25:13.783Z,30.52
2019-05-18T23:27:45.566Z,30.47
2019-05-18T23:30:17.136Z,30.55
2019-05-18T23:32:50.471Z,30.35
2019-05-18T23:35:22.897Z,30.32
2019-05-18T23:37:54.642Z,30.41
2019-05-18T23:40:26.412Z,30.44
2019-05-18T23:42:58.261Z,30.39
2019-05-18T23:45:29.846Z,30.32
2019-05-18T23:48:01.455Z,30.32
2019-05-18T23:50:33.205Z,30.43
2019-05-18T23:53:04.867Z,30.34
2019-05-18T23:55:37.994Z,30.26
2019-05-18T23:58:10.805Z,30.39
